ICJ110 BIKF-EIDW
Flight info
| Callsign | ICJ110 |
|---|---|
| Flight time | N/A |
| Altitude | 37000 |
| Route | RIMUM DCT RUMUX DCT RAPAX DCT ETILO/N0453F370 DCT EVNAL DCT TUXOS DCT BELZU DCT NUMPI/N0425F240 P620 NIMAT |
| Aircraft | B738/M-ICAO/L |
Departure
| Time | 2026-04-29 16:47 |
|---|---|
| Airport | Keflavik International Airport (BIKF) |
Arrival
| Time | N/A |
|---|---|
| Airport | Dublin Airport (EIDW) |
| Time | Latitude | Longitude | Altitude | Speed | Heading |
|---|---|---|---|---|---|
| 2026-04-29 16:22 | 63.98006 | -22.58046 | 179 ft | 0 kts | 91° |
| 2026-04-29 16:33 | 63.98006 | -22.58065 | 179 ft | 2 kts | 91° |
| 2026-04-29 16:33 | 63.98007 | -22.58090 | 179 ft | 2 kts | 91° |
| 2026-04-29 16:33 | 63.98004 | -22.58126 | 179 ft | 2 kts | 53° |
| 2026-04-29 16:34 | 63.97991 | -22.58148 | 179 ft | 2 kts | 7° |
| 2026-04-29 16:34 | 63.97988 | -22.58149 | 179 ft | 0 kts | 359° |
| 2026-04-29 16:37 | 63.97996 | -22.58149 | 179 ft | 5 kts | 359° |
| 2026-04-29 16:37 | 63.98024 | -22.58152 | 179 ft | 7 kts | 356° |
| 2026-04-29 16:38 | 63.98105 | -22.58160 | 179 ft | 10 kts | 4° |
| 2026-04-29 16:38 | 63.98164 | -22.58173 | 179 ft | 9 kts | 309° |
| 2026-04-29 16:38 | 63.98175 | -22.58321 | 179 ft | 10 kts | 270° |
| 2026-04-29 16:38 | 63.98151 | -22.58462 | 179 ft | 10 kts | 223° |
| 2026-04-29 16:39 | 63.98120 | -22.58589 | 179 ft | 9 kts | 264° |
| 2026-04-29 16:39 | 63.98118 | -22.58721 | 179 ft | 6 kts | 269° |
| 2026-04-29 16:39 | 63.98118 | -22.58765 | 179 ft | 2 kts | 270° |
| 2026-04-29 16:39 | 63.98118 | -22.58801 | 179 ft | 3 kts | 270° |
| 2026-04-29 16:40 | 63.98115 | -22.58869 | 179 ft | 6 kts | 254° |
| 2026-04-29 16:40 | 63.98074 | -22.58920 | 179 ft | 8 kts | 171° |
| 2026-04-29 16:40 | 63.98019 | -22.58870 | 179 ft | 9 kts | 154° |
| 2026-04-29 16:40 | 63.97965 | -22.58815 | 179 ft | 9 kts | 156° |
| 2026-04-29 16:41 | 63.97927 | -22.58788 | 179 ft | 0 kts | 187° |
| 2026-04-29 16:41 | 63.97920 | -22.58779 | 179 ft | 4 kts | 144° |
| 2026-04-29 16:41 | 63.97931 | -22.58702 | 179 ft | 8 kts | 29° |
| 2026-04-29 16:41 | 63.98015 | -22.58785 | 179 ft | 19 kts | 322° |
| 2026-04-29 16:42 | 63.98127 | -22.58964 | 179 ft | 19 kts | 333° |
| 2026-04-29 16:42 | 63.98249 | -22.59084 | 179 ft | 19 kts | 337° |
| 2026-04-29 16:42 | 63.98367 | -22.59196 | 179 ft | 18 kts | 337° |
| 2026-04-29 16:42 | 63.98485 | -22.59296 | 176 ft | 18 kts | 351° |
| 2026-04-29 16:43 | 63.98608 | -22.59305 | 179 ft | 18 kts | 359° |
| 2026-04-29 16:43 | 63.98728 | -22.59314 | 179 ft | 17 kts | 355° |
| 2026-04-29 16:43 | 63.98841 | -22.59375 | 179 ft | 16 kts | 343° |
| 2026-04-29 16:43 | 63.98933 | -22.59511 | 179 ft | 16 kts | 312° |
| 2026-04-29 16:44 | 63.99008 | -22.59685 | 179 ft | 15 kts | 317° |
| 2026-04-29 16:44 | 63.99083 | -22.59846 | 179 ft | 14 kts | 316° |
| 2026-04-29 16:44 | 63.99152 | -22.60007 | 179 ft | 14 kts | 309° |
| 2026-04-29 16:44 | 63.99173 | -22.60212 | 179 ft | 13 kts | 272° |
| 2026-04-29 16:45 | 63.99172 | -22.60408 | 180 ft | 10 kts | 268° |
| 2026-04-29 16:45 | 63.99168 | -22.60495 | 181 ft | 2 kts | 260° |
| 2026-04-29 16:45 | 63.99161 | -22.60530 | 181 ft | 5 kts | 237° |
| 2026-04-29 16:45 | 63.99128 | -22.60554 | 181 ft | 4 kts | 182° |
| 2026-04-29 16:46 | 63.99114 | -22.60554 | 181 ft | 0 kts | 181° |
| 2026-04-29 16:46 | 63.99110 | -22.60554 | 181 ft | 3 kts | 181° |
| 2026-04-29 16:46 | 63.98969 | -22.60554 | 179 ft | 53 kts | 180° |
| 2026-04-29 16:47 | 63.98361 | -22.60558 | 180 ft | 119 kts | 180° |
| 2026-04-29 16:47 | 63.97442 | -22.60516 | 612 ft | 136 kts | 185° |
| 2026-04-29 16:47 | 63.96520 | -22.60543 | 1537 ft | 136 kts | 187° |
| 2026-04-29 16:47 | 63.95544 | -22.60156 | 2210 ft | 154 kts | 166° |
| 2026-04-29 16:48 | 63.94510 | -22.58956 | 2750 ft | 175 kts | 160° |
| 2026-04-29 16:48 | 63.93441 | -22.57693 | 3567 ft | 174 kts | 163° |
| 2026-04-29 16:48 | 63.92266 | -22.56556 | 3882 ft | 195 kts | 164° |
| 2026-04-29 16:48 | 63.90948 | -22.55287 | 4122 ft | 215 kts | 163° |
| 2026-04-29 16:49 | 63.89518 | -22.53892 | 4451 ft | 236 kts | 163° |
| 2026-04-29 16:49 | 63.87995 | -22.52395 | 5063 ft | 246 kts | 162° |
| 2026-04-29 16:49 | 63.86420 | -22.50834 | 5886 ft | 249 kts | 162° |
| 2026-04-29 16:49 | 63.84826 | -22.49251 | 6686 ft | 251 kts | 162° |
| 2026-04-29 16:50 | 63.83215 | -22.47652 | 7452 ft | 254 kts | 163° |
| 2026-04-29 16:50 | 63.81588 | -22.46038 | 8248 ft | 256 kts | 163° |
| 2026-04-29 16:50 | 63.79946 | -22.44411 | 9034 ft | 259 kts | 165° |
| 2026-04-29 16:50 | 63.78286 | -22.42770 | 9849 ft | 262 kts | 165° |
| 2026-04-29 16:51 | 63.76615 | -22.41124 | 10368 ft | 274 kts | 165° |
| 2026-04-29 16:51 | 63.74790 | -22.39341 | 10555 ft | 297 kts | 165° |
| 2026-04-29 16:51 | 63.72824 | -22.37413 | 10734 ft | 319 kts | 164° |
| 2026-04-29 16:51 | 63.70721 | -22.35347 | 10905 ft | 339 kts | 164° |
| 2026-04-29 16:52 | 63.68516 | -22.33180 | 11310 ft | 350 kts | 163° |
| 2026-04-29 16:52 | 63.66278 | -22.30918 | 11980 ft | 354 kts | 162° |
| 2026-04-29 16:52 | 63.64045 | -22.28534 | 12731 ft | 356 kts | 162° |
| 2026-04-29 16:52 | 63.61804 | -22.26099 | 13481 ft | 359 kts | 162° |
| 2026-04-29 16:53 | 63.59547 | -22.23646 | 14170 ft | 361 kts | 162° |
| 2026-04-29 16:53 | 63.55607 | -22.19386 | 15357 ft | 365 kts | 163° |
| 2026-04-29 16:54 | 63.53311 | -22.16920 | 16059 ft | 367 kts | 163° |
| 2026-04-29 16:54 | 63.51005 | -22.14451 | 16765 ft | 369 kts | 163° |
| 2026-04-29 16:54 | 63.48680 | -22.11971 | 17426 ft | 371 kts | 164° |
| 2026-04-29 16:54 | 63.46341 | -22.09483 | 18074 ft | 374 kts | 164° |
| 2026-04-29 16:55 | 63.43982 | -22.06979 | 18654 ft | 376 kts | 164° |
| 2026-04-29 16:55 | 63.41613 | -22.04467 | 19234 ft | 378 kts | 165° |
| 2026-04-29 16:55 | 63.39233 | -22.01948 | 19810 ft | 379 kts | 165° |
| 2026-04-29 16:55 | 63.36878 | -21.99461 | 20364 ft | 381 kts | 165° |
| 2026-04-29 16:56 | 63.34478 | -21.96930 | 20917 ft | 382 kts | 165° |
| 2026-04-29 16:56 | 63.32070 | -21.94397 | 21458 ft | 384 kts | 166° |
| 2026-04-29 16:56 | 63.29650 | -21.91855 | 21983 ft | 385 kts | 166° |
| 2026-04-29 16:56 | 63.27221 | -21.89308 | 22505 ft | 387 kts | 166° |
| 2026-04-29 16:57 | 63.24783 | -21.86757 | 23016 ft | 388 kts | 166° |
| 2026-04-29 16:57 | 63.22336 | -21.84201 | 23513 ft | 389 kts | 166° |
| 2026-04-29 16:57 | 63.19879 | -21.81639 | 23917 ft | 391 kts | 167° |
| 2026-04-29 16:57 | 63.17447 | -21.79107 | 24281 ft | 393 kts | 167° |
| 2026-04-29 16:58 | 63.14970 | -21.76531 | 24646 ft | 394 kts | 167° |
| 2026-04-29 16:58 | 63.12480 | -21.73950 | 25010 ft | 396 kts | 167° |
| 2026-04-29 16:58 | 63.09982 | -21.71367 | 25361 ft | 397 kts | 167° |
| 2026-04-29 16:58 | 63.07538 | -21.68270 | 25676 ft | 418 kts | 156° |
| 2026-04-29 16:59 | 63.05358 | -21.63758 | 26010 ft | 439 kts | 146° |
| 2026-04-29 16:59 | 63.03322 | -21.58710 | 26340 ft | 443 kts | 145° |
| 2026-04-29 16:59 | 63.01322 | -21.53641 | 26628 ft | 445 kts | 144° |
| 2026-04-29 16:59 | 62.99288 | -21.48472 | 26910 ft | 447 kts | 145° |
| 2026-04-29 17:00 | 62.97242 | -21.43309 | 27222 ft | 448 kts | 145° |
| 2026-04-29 17:00 | 62.95191 | -21.38172 | 27652 ft | 446 kts | 145° |
| 2026-04-29 17:00 | 62.93145 | -21.33083 | 28130 ft | 443 kts | 146° |
| 2026-04-29 17:00 | 62.91105 | -21.28044 | 28570 ft | 441 kts | 146° |
| 2026-04-29 17:01 | 62.89061 | -21.23028 | 28965 ft | 441 kts | 146° |
| 2026-04-29 17:01 | 62.87017 | -21.18032 | 29362 ft | 440 kts | 146° |
| 2026-04-29 17:01 | 62.84975 | -21.13053 | 29787 ft | 439 kts | 146° |
| 2026-04-29 17:01 | 62.82939 | -21.08098 | 30169 ft | 438 kts | 146° |
| 2026-04-29 17:02 | 62.80930 | -21.03221 | 30480 ft | 437 kts | 146° |
| 2026-04-29 17:02 | 62.78892 | -20.98284 | 30768 ft | 437 kts | 146° |
| 2026-04-29 17:02 | 62.76854 | -20.93357 | 31080 ft | 437 kts | 147° |
| 2026-04-29 17:02 | 62.74819 | -20.88444 | 31410 ft | 436 kts | 147° |
| 2026-04-29 17:03 | 62.72783 | -20.83539 | 31715 ft | 435 kts | 147° |
| 2026-04-29 17:03 | 62.70752 | -20.78658 | 32025 ft | 435 kts | 147° |
| 2026-04-29 17:03 | 62.68718 | -20.73780 | 32345 ft | 434 kts | 147° |
| 2026-04-29 17:03 | 62.66685 | -20.68917 | 32657 ft | 434 kts | 147° |
| 2026-04-29 17:04 | 62.64656 | -20.64072 | 32958 ft | 433 kts | 147° |
| 2026-04-29 17:04 | 62.62652 | -20.59298 | 33259 ft | 433 kts | 147° |
| 2026-04-29 17:04 | 62.60626 | -20.54482 | 33577 ft | 432 kts | 148° |
| 2026-04-29 17:04 | 62.58601 | -20.49678 | 33881 ft | 431 kts | 148° |
| 2026-04-29 17:05 | 62.56576 | -20.44886 | 34151 ft | 431 kts | 148° |
| 2026-04-29 17:05 | 62.54548 | -20.40098 | 34333 ft | 432 kts | 147° |
| 2026-04-29 17:05 | 62.52507 | -20.35298 | 34484 ft | 434 kts | 147° |
| 2026-04-29 17:05 | 62.50460 | -20.30487 | 34663 ft | 435 kts | 147° |
| 2026-04-29 17:06 | 62.48405 | -20.25664 | 34866 ft | 436 kts | 147° |
| 2026-04-29 17:06 | 62.46352 | -20.20854 | 35052 ft | 437 kts | 146° |
| 2026-04-29 17:06 | 62.44315 | -20.16094 | 35212 ft | 438 kts | 146° |
| 2026-04-29 17:06 | 62.42243 | -20.11259 | 35393 ft | 439 kts | 146° |
| 2026-04-29 17:07 | 62.40168 | -20.06427 | 35581 ft | 439 kts | 146° |
| 2026-04-29 17:07 | 62.38088 | -20.01600 | 35764 ft | 440 kts | 146° |
| 2026-04-29 17:07 | 62.35936 | -19.96967 | 35921 ft | 434 kts | 149° |
| 2026-04-29 17:07 | 62.33704 | -19.92606 | 36096 ft | 433 kts | 150° |
| 2026-04-29 17:08 | 62.31443 | -19.88329 | 36280 ft | 433 kts | 151° |
| 2026-04-29 17:08 | 62.29170 | -19.84073 | 36454 ft | 433 kts | 150° |
| 2026-04-29 17:08 | 62.26895 | -19.79811 | 36617 ft | 435 kts | 150° |
| 2026-04-29 17:08 | 62.24651 | -19.75590 | 36789 ft | 435 kts | 150° |
| 2026-04-29 17:09 | 62.22374 | -19.71295 | 36970 ft | 436 kts | 150° |
| 2026-04-29 17:09 | 62.20094 | -19.66986 | 37038 ft | 439 kts | 149° |
| 2026-04-29 17:09 | 62.15513 | -19.58331 | 37033 ft | 438 kts | 149° |
| 2026-04-29 17:10 | 62.10959 | -19.49739 | 37037 ft | 435 kts | 149° |
| 2026-04-29 17:10 | 62.06459 | -19.41296 | 37043 ft | 432 kts | 150° |
| 2026-04-29 17:11 | 62.01945 | -19.32869 | 37062 ft | 431 kts | 150° |
| 2026-04-29 17:11 | 61.97434 | -19.24486 | 37049 ft | 430 kts | 150° |
| 2026-04-29 17:12 | 61.92924 | -19.16138 | 37056 ft | 430 kts | 150° |
| 2026-04-29 17:12 | 61.89165 | -19.09207 | 37058 ft | 431 kts | 150° |
| 2026-04-29 17:13 | 61.83894 | -18.99523 | 37062 ft | 432 kts | 150° |
| 2026-04-29 17:13 | 61.79337 | -18.91187 | 37070 ft | 434 kts | 150° |
| 2026-04-29 17:14 | 61.74765 | -18.82857 | 37066 ft | 435 kts | 150° |
| 2026-04-29 17:14 | 61.70177 | -18.74531 | 37073 ft | 435 kts | 150° |
| 2026-04-29 17:15 | 61.65610 | -18.66274 | 37077 ft | 436 kts | 150° |
| 2026-04-29 17:15 | 61.61002 | -18.57979 | 37074 ft | 436 kts | 150° |
| 2026-04-29 17:16 | 61.56393 | -18.49710 | 37074 ft | 436 kts | 150° |
| 2026-04-29 17:16 | 61.51780 | -18.41471 | 37076 ft | 435 kts | 150° |
| 2026-04-29 17:17 | 61.47479 | -18.32283 | 37094 ft | 449 kts | 141° |
| 2026-04-29 17:17 | 61.43534 | -18.22227 | 37079 ft | 450 kts | 140° |
| 2026-04-29 17:18 | 61.39571 | -18.12104 | 37082 ft | 450 kts | 140° |
| 2026-04-29 17:18 | 61.35581 | -18.02047 | 37087 ft | 450 kts | 140° |
| 2026-04-29 17:19 | 61.31601 | -17.92118 | 37088 ft | 449 kts | 140° |
| 2026-04-29 17:19 | 61.27587 | -17.82164 | 37094 ft | 449 kts | 140° |
| 2026-04-29 17:20 | 61.23564 | -17.72233 | 37093 ft | 449 kts | 140° |
| 2026-04-29 17:20 | 61.19541 | -17.62343 | 37093 ft | 448 kts | 140° |
| 2026-04-29 17:21 | 61.15511 | -17.52477 | 37099 ft | 448 kts | 140° |
| 2026-04-29 17:21 | 61.11500 | -17.42699 | 37105 ft | 448 kts | 140° |
| 2026-04-29 17:22 | 61.07457 | -17.32885 | 37101 ft | 449 kts | 140° |
| 2026-04-29 17:22 | 61.03405 | -17.23092 | 37102 ft | 448 kts | 140° |
| 2026-04-29 17:23 | 60.99346 | -17.13324 | 37097 ft | 448 kts | 140° |
| 2026-04-29 17:23 | 60.95308 | -17.03648 | 37100 ft | 449 kts | 140° |
| 2026-04-29 17:24 | 60.91233 | -16.93928 | 37109 ft | 449 kts | 140° |
| 2026-04-29 17:24 | 60.87152 | -16.84231 | 36874 ft | 449 kts | 140° |
| 2026-04-29 17:25 | 60.83044 | -16.74530 | 37044 ft | 453 kts | 137° |
| 2026-04-29 17:25 | 60.78884 | -16.64730 | 37120 ft | 459 kts | 137° |
| 2026-04-29 17:26 | 60.74691 | -16.54895 | 37137 ft | 463 kts | 137° |
| 2026-04-29 17:26 | 60.70449 | -16.44980 | 37131 ft | 464 kts | 136° |
| 2026-04-29 17:27 | 60.66190 | -16.35074 | 37139 ft | 464 kts | 136° |
| 2026-04-29 17:27 | 60.61926 | -16.25198 | 37137 ft | 463 kts | 136° |
| 2026-04-29 17:28 | 60.57666 | -16.15378 | 37152 ft | 462 kts | 137° |
| 2026-04-29 17:28 | 60.53437 | -16.05671 | 37143 ft | 461 kts | 136° |
| 2026-04-29 17:29 | 60.49179 | -15.95941 | 37158 ft | 460 kts | 137° |
| 2026-04-29 17:29 | 60.45643 | -15.87892 | 37157 ft | 460 kts | 136° |
| 2026-04-29 17:30 | 60.40668 | -15.76618 | 37169 ft | 459 kts | 136° |
| 2026-04-29 17:30 | 60.36436 | -15.67070 | 37169 ft | 459 kts | 136° |
| 2026-04-29 17:31 | 60.32173 | -15.57492 | 37181 ft | 458 kts | 137° |
| 2026-04-29 17:31 | 60.27907 | -15.47949 | 37181 ft | 458 kts | 136° |
| 2026-04-29 17:32 | 60.23636 | -15.38433 | 37190 ft | 458 kts | 137° |
| 2026-04-29 17:32 | 60.19359 | -15.28944 | 37190 ft | 458 kts | 137° |
| 2026-04-29 17:33 | 60.15104 | -15.19544 | 37199 ft | 458 kts | 137° |
| 2026-04-29 17:33 | 60.10813 | -15.10105 | 37199 ft | 458 kts | 137° |
| 2026-04-29 17:34 | 60.06516 | -15.00690 | 37209 ft | 458 kts | 137° |
| 2026-04-29 17:34 | 60.02209 | -14.91293 | 37210 ft | 458 kts | 137° |
| 2026-04-29 17:35 | 59.95763 | -14.77302 | 37216 ft | 458 kts | 137° |
| 2026-04-29 17:36 | 59.91437 | -14.67961 | 37224 ft | 458 kts | 137° |
| 2026-04-29 17:36 | 59.87104 | -14.58643 | 37225 ft | 458 kts | 137° |
| 2026-04-29 17:37 | 59.82770 | -14.49359 | 37228 ft | 458 kts | 137° |
| 2026-04-29 17:37 | 59.78456 | -14.40159 | 37233 ft | 458 kts | 137° |
| 2026-04-29 17:38 | 59.74105 | -14.30915 | 37237 ft | 458 kts | 137° |
| 2026-04-29 17:38 | 59.69752 | -14.21708 | 37243 ft | 458 kts | 137° |
| 2026-04-29 17:39 | 59.65396 | -14.12530 | 37245 ft | 457 kts | 137° |
| 2026-04-29 17:39 | 59.61065 | -14.03441 | 37256 ft | 457 kts | 137° |
| 2026-04-29 17:40 | 59.56699 | -13.94315 | 37254 ft | 457 kts | 137° |
| 2026-04-29 17:40 | 59.52331 | -13.85223 | 37261 ft | 456 kts | 137° |
| 2026-04-29 17:41 | 59.47960 | -13.76162 | 37263 ft | 456 kts | 137° |
| 2026-04-29 17:41 | 59.43581 | -13.67120 | 37266 ft | 456 kts | 137° |
| 2026-04-29 17:42 | 59.39227 | -13.58167 | 37271 ft | 456 kts | 137° |
| 2026-04-29 17:42 | 59.34838 | -13.49176 | 37278 ft | 456 kts | 137° |
| 2026-04-29 17:43 | 59.30442 | -13.40208 | 37276 ft | 456 kts | 137° |
| 2026-04-29 17:43 | 59.26042 | -13.31266 | 37281 ft | 456 kts | 137° |
| 2026-04-29 17:44 | 59.21668 | -13.22412 | 37285 ft | 456 kts | 137° |
| 2026-04-29 17:44 | 59.17260 | -13.13525 | 37288 ft | 456 kts | 137° |
| 2026-04-29 17:45 | 59.12847 | -13.04663 | 37291 ft | 455 kts | 137° |
| 2026-04-29 17:45 | 59.08431 | -12.95830 | 37295 ft | 455 kts | 137° |
| 2026-04-29 17:46 | 59.04043 | -12.87087 | 37295 ft | 455 kts | 137° |
| 2026-04-29 17:46 | 58.99629 | -12.78324 | 37309 ft | 451 kts | 139° |
| 2026-04-29 17:47 | 58.95282 | -12.69723 | 37299 ft | 444 kts | 139° |
| 2026-04-29 17:47 | 58.90955 | -12.61204 | 37309 ft | 443 kts | 139° |
| 2026-04-29 17:48 | 58.86655 | -12.52773 | 37312 ft | 443 kts | 139° |
| 2026-04-29 17:48 | 58.82322 | -12.44304 | 37312 ft | 443 kts | 139° |
| 2026-04-29 17:49 | 58.77975 | -12.35840 | 37317 ft | 444 kts | 139° |
| 2026-04-29 17:49 | 58.73619 | -12.27391 | 37318 ft | 445 kts | 139° |
| 2026-04-29 17:50 | 58.69247 | -12.18942 | 37322 ft | 446 kts | 139° |
| 2026-04-29 17:50 | 58.64893 | -12.10558 | 37323 ft | 447 kts | 139° |
| 2026-04-29 17:51 | 58.60496 | -12.02124 | 37326 ft | 447 kts | 139° |
| 2026-04-29 17:51 | 58.56092 | -11.93706 | 37326 ft | 447 kts | 139° |
| 2026-04-29 17:52 | 58.51683 | -11.85313 | 37326 ft | 447 kts | 139° |
| 2026-04-29 17:52 | 58.47299 | -11.76999 | 37329 ft | 447 kts | 139° |
| 2026-04-29 17:53 | 58.42884 | -11.68655 | 37330 ft | 446 kts | 139° |
| 2026-04-29 17:53 | 58.38468 | -11.60341 | 37332 ft | 446 kts | 139° |
| 2026-04-29 17:54 | 58.34047 | -11.52049 | 37331 ft | 446 kts | 139° |
| 2026-04-29 17:54 | 58.29659 | -11.43850 | 37339 ft | 445 kts | 139° |
| 2026-04-29 17:55 | 58.25238 | -11.35618 | 37338 ft | 445 kts | 139° |
| 2026-04-29 17:55 | 58.20814 | -11.27413 | 37339 ft | 444 kts | 139° |
| 2026-04-29 17:56 | 58.16389 | -11.19233 | 37343 ft | 444 kts | 139° |
| 2026-04-29 17:56 | 58.11990 | -11.11134 | 37342 ft | 444 kts | 139° |
| 2026-04-29 17:57 | 58.07562 | -11.03010 | 37344 ft | 443 kts | 139° |
| 2026-04-29 17:57 | 58.03133 | -10.94912 | 37344 ft | 443 kts | 139° |
| 2026-04-29 17:58 | 57.98729 | -10.86891 | 37344 ft | 443 kts | 139° |
| 2026-04-29 17:58 | 57.94299 | -10.78850 | 37349 ft | 442 kts | 139° |
| 2026-04-29 17:59 | 57.89863 | -10.70830 | 37349 ft | 442 kts | 139° |
| 2026-04-29 17:59 | 57.85429 | -10.62839 | 37355 ft | 442 kts | 138° |
| 2026-04-29 18:00 | 57.80992 | -10.54874 | 37354 ft | 441 kts | 138° |
| 2026-04-29 18:00 | 57.76584 | -10.46988 | 37357 ft | 441 kts | 138° |
| 2026-04-29 18:01 | 57.72144 | -10.39073 | 37355 ft | 441 kts | 138° |
| 2026-04-29 18:01 | 57.67699 | -10.31176 | 37360 ft | 440 kts | 138° |
| 2026-04-29 18:02 | 57.63252 | -10.23303 | 37361 ft | 440 kts | 138° |
| 2026-04-29 18:02 | 57.58834 | -10.15509 | 37360 ft | 440 kts | 138° |
| 2026-04-29 18:03 | 57.54378 | -10.07673 | 37361 ft | 440 kts | 138° |
| 2026-04-29 18:03 | 57.49918 | -9.99861 | 37362 ft | 440 kts | 138° |
| 2026-04-29 18:04 | 57.45424 | -9.92128 | 37362 ft | 440 kts | 139° |
| 2026-04-29 18:04 | 57.40939 | -9.84506 | 37359 ft | 440 kts | 139° |
| 2026-04-29 18:05 | 57.36422 | -9.76847 | 37354 ft | 440 kts | 139° |
| 2026-04-29 18:05 | 57.31903 | -9.69195 | 37367 ft | 440 kts | 139° |
| 2026-04-29 18:06 | 57.27411 | -9.61611 | 37365 ft | 440 kts | 138° |
| 2026-04-29 18:06 | 57.22886 | -9.53995 | 37372 ft | 440 kts | 138° |
| 2026-04-29 18:07 | 57.18357 | -9.46401 | 37364 ft | 440 kts | 138° |
| 2026-04-29 18:07 | 57.13822 | -9.38822 | 37355 ft | 440 kts | 138° |
| 2026-04-29 18:08 | 57.09315 | -9.31317 | 37368 ft | 440 kts | 138° |
| 2026-04-29 18:08 | 57.04778 | -9.23786 | 37367 ft | 439 kts | 138° |
| 2026-04-29 18:09 | 57.00237 | -9.16276 | 37366 ft | 439 kts | 138° |
| 2026-04-29 18:09 | 56.95699 | -9.08796 | 37368 ft | 439 kts | 138° |
| 2026-04-29 18:10 | 56.91159 | -9.01339 | 37363 ft | 438 kts | 138° |
| 2026-04-29 18:10 | 56.86645 | -8.93950 | 37367 ft | 438 kts | 138° |
| 2026-04-29 18:11 | 56.82103 | -8.86538 | 37367 ft | 438 kts | 138° |
| 2026-04-29 18:11 | 56.77557 | -8.79147 | 37362 ft | 437 kts | 138° |